Accueil
METAR-TAF:

METAR-TAF

Aéroports :

Lleida-Alguaire

Lleida, Espagne

latitude: 41-43-40N, longitude: 000-32-09E, altitude: 350 m

Observation

Le bulletin a été fait il y a 1 heure et 22 minutes, à 03:30 UTC
Vent 14 kt de sud/sud-est avec des rafales jusqu'à 25 kt
Température 21°C
Humidité 83%
Pression 1021 hPa
Visibilité 10 km ou plus
pluie faible

METAR: LEDA 060330Z AUTO 16014G25KT 9999 -RA NSC 21/18 Q1021

Heure: 06:52 (04:52 UTC)


TAF: absent

Observations et prévisions météorologiques de plus de 4000 aéroports (messages METAR et TAF).

Les stations disponibles sont représentées par des disques jaunes et rouges sur la carte.

Passer la souris dessus pour voir le nom de la station.

Cliquer dessus pour voir les observations et prévisions météorologiques.

Pour changer de carte: cliquez sur les boutons verts avec une croix noire pour zoomer, sur le bouton vert avec un tiret pour effectuer un zoom arrière, ou sur les flèches vertes pour les cartes adjacentes.


METAR-TAF: